Lone Star, South Carolina
Current Conditions -  °F | °C
As of 9:03 AM on Sunday 23 Nov 2014 (Local Time) from KOGB Reporting Station
Heavy Rain Heavy Rain  
Wind Chill: 55°   Ceiling: 700
Heat Index: 55°   Visibility: 3mi
Dew Point: 52°   Wind: 12mph
Humidity: 89%   Direction: 70°ENE
Pressure: 30.1"   Gusts: 21mph
Location:  33.5645°N, 80.6572°W
Report Text: KOGB 231403Z AUTO 07010G18KT 3SM +RA BR BKN007 BKN050 OVC085 13/11 A3010 RMK AO2 P0001 T01280111
Loading
Personal Weather Stations






























Interactive Weather Map New forecast layout! Learn more

10-Day Weather Forecast

Advertisements
Track Severe Weather on mobile